Time;durP1;ratioP1;P1;durP2;ratioP2;P2;SDS_P1;SDS_P2;PMS_P1;PMS_P2;Temp;Humidity;BMP_temperature;BMP_pressure;BME280_temperature;BME280_humidity;BME280_pressure;Samples;Min_cycle;Max_cycle;Signal;HPM_P1;HPM_P2
2022/10/27 00:00:01;;;;;;;1.58;1.20;;;13.90;98.00;;;;;;5058768;28;20036;-75
2022/10/27 00:02:36;;;;;;;0.73;0.37;;;14.00;98.00;;;;;;5057542;28;20032;-75
2022/10/27 00:05:02;;;;;;;0.77;0.50;;;14.00;98.00;;;;;;5058003;28;20100;-75
2022/10/27 00:07:45;;;;;;;0.93;0.63;;;14.00;98.00;;;;;;5058638;28;20063;-75
2022/10/27 00:10:20;;;;;;;0.60;0.57;;;14.00;98.00;;;;;;5058689;28;20421;-75
2022/10/27 00:12:55;;;;;;;1.08;1.05;;;13.90;98.00;;;;;;5058458;28;20033;-75
2022/10/27 00:15:30;;;;;;;0.15;0.08;;;13.90;98.00;;;;;;5057499;28;20060;-75
2022/10/27 00:18:55;;;;;;;0.08;0.08;;;13.90;98.00;;;;;;5058429;28;20110;-75
2022/10/27 00:22:23;;;;;;;0.10;0.10;;;13.90;98.00;;;;;;5056670;28;20045;-75
2022/10/27 00:24:49;;;;;;;;;;;13.90;98.00;;;;;;5058797;28;20040;-75
2022/10/27 00:27:33;;;;;;;0.27;0.20;;;13.90;98.00;;;;;;5058286;28;19913;-75
2022/10/27 00:30:08;;;;;;;0.30;0.13;;;13.90;98.00;;;;;;5040647;28;20421;-75
2022/10/27 00:32:43;;;;;;;0.45;0.30;;;14.00;98.00;;;;;;5058058;28;20036;-75
2022/10/27 00:35:17;;;;;;;0.75;0.30;;;14.00;98.00;;;;;;5057349;28;20364;-75
2022/10/27 00:37:52;;;;;;;1.98;0.82;;;14.00;98.00;;;;;;5058031;28;20048;-75
2022/10/27 00:40:27;;;;;;;0.97;0.57;;;14.00;98.00;;;;;;5056967;28;20033;-75
2022/10/27 00:42:53;;;;;;;0.33;0.27;;;14.00;98.00;;;;;;5057876;28;20021;-75
2022/10/27 00:45:37;;;;;;;0.38;0.38;;;14.00;98.00;;;;;;5056713;28;20306;-75
2022/10/27 00:51:25;;;;;;;0.55;0.38;;;13.80;98.00;;;;;;5058206;28;20420;-75
2022/10/27 00:53:51;;;;;;;0.85;0.60;;;13.80;98.00;;;;;;5057707;28;20337;-75
2022/10/27 00:56:26;;;;;;;1.65;1.15;;;13.80;98.00;;;;;;5056463;28;20447;-75
2022/10/27 00:59:02;;;;;;;0.65;0.40;;;13.80;98.00;;;;;;5056710;28;20376;-75
2022/10/27 01:01:37;;;;;;;0.10;0.10;;;13.80;98.00;;;;;;5056437;28;20017;-75
2022/10/27 01:04:03;;;;;;;1.60;0.55;;;13.80;98.00;;;;;;5057560;28;20384;-75
2022/10/27 01:06:44;;;;;;;0.73;0.73;;;13.80;98.00;;;;;;5056443;28;20087;-75
2022/10/27 01:09:20;;;;;;;0.10;0.10;;;13.70;98.00;;;;;;5056435;28;20065;-75
2022/10/27 01:15:44;;;;;;;0.20;0.20;;;13.70;98.00;;;;;;5057830;28;20055;-75
2022/10/27 01:18:50;;;;;;;5.28;0.77;;;13.60;98.00;;;;;;5057136;28;20091;-75
2022/10/27 01:21:34;;;;;;;3.72;0.90;;;13.60;98.00;;;;;;5054470;28;20337;-75
2022/10/27 01:24:25;;;;;;;0.43;0.40;;;13.60;98.00;;;;;;5057154;28;20028;-75
2022/10/27 01:27:04;;;;;;;0.57;0.40;;;13.60;98.00;;;;;;5057229;28;20029;-75
2022/10/27 01:30:03;;;;;;;0.98;0.90;;;13.60;98.00;;;;;;5057162;28;20298;-75
2022/10/27 01:33:05;;;;;;;0.35;0.35;;;13.60;98.00;;;;;;5056912;28;20048;-75
2022/10/27 01:38:57;;;;;;;2.15;1.55;;;13.60;98.00;;;;;;5056886;28;20086;-75
2022/10/27 01:42:08;;;;;;;1.27;0.85;;;13.60;98.00;;;;;;5055749;28;20394;-75
2022/10/27 01:44:46;;;;;;;0.43;0.43;;;13.60;98.00;;;;;;5038337;28;20057;-75
2022/10/27 01:47:22;;;;;;;0.15;0.15;;;13.60;98.00;;;;;;5054984;28;20476;-75
2022/10/27 01:49:57;;;;;;;0.57;0.57;;;13.60;98.00;;;;;;5038184;28;20043;-75
2022/10/27 01:56:21;;;;;;;2.25;1.20;;;13.50;98.00;;;;;;5054850;28;20367;-75
2022/10/27 01:59:24;;;;;;;0.88;0.80;;;13.50;98.00;;;;;;5054749;28;20090;-76
2022/10/27 02:02:27;;;;;;;1.23;0.95;;;13.50;98.00;;;;;;5056389;28;20025;-75
2022/10/27 02:04:59;;;;;;;1.10;0.77;;;13.50;98.00;;;;;;5056586;28;20037;-75
2022/10/27 02:08:02;;;;;;;0.50;0.50;;;13.50;98.00;;;;;;5056471;28;20025;-75
2022/10/27 02:11:15;;;;;;;1.45;1.15;;;13.60;98.00;;;;;;5056412;28;20029;-75
2022/10/27 02:13:44;;;;;;;0.32;0.32;;;13.60;98.00;;;;;;5056139;28;20116;-75
2022/10/27 02:16:31;;;;;;;1.25;1.13;;;13.60;98.00;;;;;;5055313;28;20083;-75
2022/10/27 02:19:33;;;;;;;1.02;0.93;;;13.60;98.00;;;;;;5056339;28;20032;-75
2022/10/27 02:22:59;;;;;;;0.73;0.73;;;13.60;98.00;;;;;;5053681;28;20052;-75
2022/10/27 02:26:25;;;;;;;0.85;0.55;;;13.50;98.00;;;;;;5056303;28;20033;-76
2022/10/27 02:29:51;;;;;;;0.68;0.68;;;13.40;98.00;;;;;;5055251;28;20036;-75
2022/10/27 02:33:16;;;;;;;0.73;0.57;;;13.40;98.00;;;;;;5056137;28;20021;-76
2022/10/27 02:36:41;;;;;;;0.95;0.80;;;13.40;98.00;;;;;;5056174;28;20029;-75
2022/10/27 02:40:06;;;;;;;1.13;0.43;;;13.40;98.00;;;;;;5056189;28;20337;-75
2022/10/27 02:42:57;;;;;;;1.00;0.80;;;13.30;98.00;;;;;;5056065;28;20104;-75
2022/10/27 02:45:32;;;;;;;1.60;0.60;;;13.40;98.00;;;;;;5056136;28;20033;-76
2022/10/27 02:48:06;;;;;;;0.47;0.40;;;13.40;98.00;;;;;;5055328;28;20025;-75
2022/10/27 02:50:41;;;;;;;0.22;0.17;;;13.40;98.00;;;;;;5055075;28;20040;-75
2022/10/27 02:53:07;;;;;;;0.75;0.75;;;13.30;98.00;;;;;;5056147;28;20421;-75
2022/10/27 02:55:42;;;;;;;1.23;0.80;;;13.40;98.00;;;;;;5055922;28;20039;-76
2022/10/27 02:58:17;;;;;;;0.10;0.10;;;13.40;98.00;;;;;;5055892;28;20029;-76
2022/10/27 03:00:55;;;;;;;0.63;0.52;;;13.50;98.00;;;;;;5056192;28;20352;-75
2022/10/27 03:03:21;;;;;;;0.47;0.45;;;13.60;98.00;;;;;;5054895;28;20108;-75
2022/10/27 03:05:56;;;;;;;0.65;0.57;;;13.60;98.00;;;;;;5054885;28;20031;-76
2022/10/27 03:08:31;;;;;;;0.50;0.40;;;13.60;98.00;;;;;;5057681;28;20052;-75
2022/10/27 03:11:06;;;;;;;2.27;0.97;;;13.70;98.00;;;;;;5059793;28;20033;-75
2022/10/27 03:14:12;;;;;;;0.28;0.20;;;13.70;98.00;;;;;;5058618;28;20029;-75
2022/10/27 03:16:47;;;;;;;1.60;0.53;;;13.80;98.00;;;;;;5059465;28;20096;-75
2022/10/27 03:19:22;;;;;;;0.20;0.10;;;13.80;98.00;;;;;;5058485;28;20441;-75
2022/10/27 03:21:56;;;;;;;1.00;0.47;;;13.80;98.00;;;;;;5052741;28;20052;-76
2022/10/27 03:24:22;;;;;;;0.20;0.20;;;13.70;98.00;;;;;;5058465;28;20044;-75
2022/10/27 03:27:03;;;;;;;6.22;2.22;;;13.60;98.00;;;;;;5059368;28;20033;-75
2022/10/27 03:29:38;;;;;;;0.03;0.03;;;13.60;98.00;;;;;;5058364;28;20040;-75
2022/10/27 03:32:13;;;;;;;0.00;0.00;;;13.50;98.00;;;;;;5058194;28;20029;-76
2022/10/27 03:34:39;;;;;;;0.30;0.30;;;13.50;98.00;;;;;;5058310;28;20014;-75
2022/10/27 03:37:23;;;;;;;0.60;0.60;;;13.40;98.00;;;;;;5059192;28;20428;-76
2022/10/27 03:39:57;;;;;;;0.28;0.22;;;13.50;98.00;;;;;;5058021;28;20033;-75
2022/10/27 03:42:32;;;;;;;0.20;0.10;;;13.50;98.00;;;;;;5058079;28;20105;-75
2022/10/27 03:44:58;;;;;;;0.50;0.30;;;13.50;98.00;;;;;;5058089;28;20025;-75
2022/10/27 03:47:42;;;;;;;0.08;0.08;;;13.50;98.00;;;;;;5059029;28;20025;-75
2022/10/27 03:50:17;;;;;;;0.13;0.13;;;13.50;98.00;;;;;;5057983;28;20057;-76
2022/10/27 03:52:52;;;;;;;0.07;0.00;;;13.40;98.00;;;;;;5057747;28;20025;-76
2022/10/27 03:55:28;;;;;;;0.47;0.47;;;13.40;98.00;;;;;;5057944;28;20033;-75
2022/10/27 03:58:03;;;;;;;0.03;0.03;;;13.40;98.00;;;;;;5058876;28;20048;-75
2022/10/27 04:00:38;;;;;;;0.22;0.22;;;13.40;98.00;;;;;;5058722;28;20032;-76
2022/10/27 04:06:38;;;;;;;1.77;1.35;;;13.30;98.00;;;;;;5058663;28;20060;-76
2022/10/27 04:09:13;;;;;;;0.25;0.20;;;13.50;98.00;;;;;;5058725;28;20025;-75
2022/10/27 04:11:48;;;;;;;0.05;0.03;;;13.50;98.00;;;;;;5057563;28;20029;-75
2022/10/27 04:14:14;;;;;;;0.00;0.00;;;13.50;98.00;;;;;;5058689;28;20025;-75
2022/10/27 04:16:58;;;;;;;0.98;0.68;;;13.50;98.00;;;;;;5057528;28;20035;-75
2022/10/27 04:19:33;;;;;;;0.00;0.00;;;13.50;98.00;;;;;;5057612;28;20083;-75
2022/10/27 04:22:59;;;;;;;0.05;0.05;;;13.40;98.00;;;;;;5054170;28;20044;-75
2022/10/27 04:29:59;;;;;;;0.63;0.32;;;13.30;98.00;;;;;;5058285;28;20086;-75
2022/10/27 04:33:24;;;;;;;0.30;0.20;;;13.40;98.00;;;;;;5058280;28;20037;-75
2022/10/27 04:36:50;;;;;;;0.00;0.00;;;13.50;98.00;;;;;;5057065;28;20037;-75
2022/10/27 04:40:16;;;;;;;0.50;0.47;;;13.50;98.00;;;;;;5056981;28;20452;-75
2022/10/27 04:47:16;;;;;;;2.17;0.10;;;13.40;98.00;;;;;;5058229;28;20154;-76
2022/10/27 04:50:42;;;;;;;0.10;0.10;;;13.40;98.00;;;;;;5057967;28;20100;-75
2022/10/27 04:53:08;;;;;;;0.40;0.38;;;13.30;98.00;;;;;;5057800;28;20112;-75
2022/10/27 04:55:43;;;;;;;0.10;0.08;;;13.30;98.00;;;;;;5056865;28;20147;-75
2022/10/27 04:58:18;;;;;;;0.08;0.08;;;13.30;98.00;;;;;;5057804;28;20383;-75
2022/10/27 05:00:52;;;;;;;0.15;0.15;;;13.30;98.00;;;;;;5057653;28;20528;-75
2022/10/27 05:03:18;;;;;;;0.13;0.13;;;13.30;98.00;;;;;;5057550;28;20029;-75
2022/10/27 05:06:03;;;;;;;0.35;0.30;;;13.30;98.00;;;;;;5057562;28;20030;-76
2022/10/27 05:08:38;;;;;;;0.10;0.10;;;13.30;98.00;;;;;;5057532;28;20317;-75
2022/10/27 05:11:13;;;;;;;0.80;0.80;;;13.30;98.00;;;;;;5056349;28;20127;-75
2022/10/27 05:13:39;;;;;;;0.20;0.13;;;13.40;98.00;;;;;;5056268;28;20025;-75
2022/10/27 05:16:23;;;;;;;0.10;0.10;;;13.70;98.00;;;;;;5056647;28;20264;-76
2022/10/27 05:18:57;;;;;;;0.10;0.10;;;14.00;98.00;;;;;;5057576;28;20032;-75
2022/10/27 05:21:32;;;;;;;0.08;0.08;;;14.10;98.00;;;;;;5056310;28;20032;-75
2022/10/27 05:27:36;;;;;;;0.10;0.10;;;14.20;98.00;;;;;;5057410;28;20444;-75
2022/10/27 05:30:11;;;;;;;0.10;0.10;;;14.20;98.00;;;;;;5056082;28;20029;-76
2022/10/27 05:32:49;;;;;;;1.00;0.80;;;14.20;98.00;;;;;;5056929;28;20112;-75
2022/10/27 05:35:24;;;;;;;0.10;0.00;;;14.20;98.00;;;;;;5056029;28;20059;-75
2022/10/27 05:37:58;;;;;;;0.43;0.30;;;14.10;98.00;;;;;;5057133;28;20041;-75
2022/10/27 05:40:33;;;;;;;1.40;1.25;;;14.20;98.00;;;;;;5055790;28;20036;-75
2022/10/27 05:43:00;;;;;;;0.00;0.00;;;14.30;98.00;;;;;;5056778;28;20028;-75
2022/10/27 05:45:38;;;;;;;0.10;0.10;;;14.30;98.00;;;;;;5056920;28;20025;-75
2022/10/27 05:48:13;;;;;;;0.10;0.10;;;14.40;98.00;;;;;;5056859;28;20428;-75
2022/10/27 05:50:52;;;;;;;1.10;0.40;;;14.50;98.00;;;;;;5056867;28;20367;-75
2022/10/27 05:53:19;;;;;;;0.00;0.00;;;14.50;97.00;;;;;;5056648;28;20329;-75
2022/10/27 05:56:00;;;;;;;0.00;0.00;;;14.70;96.70;;;;;;5056788;28;20037;-75
2022/10/27 05:58:35;;;;;;;2.05;1.08;;;14.80;95.60;;;;;;5055537;28;20033;-75
2022/10/27 06:01:11;;;;;;;0.00;0.00;;;15.00;93.80;;;;;;5056694;28;20124;-75
2022/10/27 06:07:11;;;;;;;0.00;0.00;;;15.20;94.80;;;;;;5056953;28;20106;-75
2022/10/27 06:09:45;;;;;;;1.02;0.52;;;15.20;93.80;;;;;;5055537;28;20110;-75
2022/10/27 06:15:48;;;;;;;0.57;0.25;;;15.20;96.80;;;;;;5056916;28;20163;-75
2022/10/27 06:18:23;;;;;;;0.20;0.15;;;15.00;95.50;;;;;;5056339;28;20425;-75
2022/10/27 06:20:58;;;;;;;0.10;0.10;;;15.10;94.40;;;;;;5055409;28;20124;-75
2022/10/27 06:23:24;;;;;;;0.00;0.00;;;15.20;93.90;;;;;;5054692;28;20057;-75
2022/10/27 06:26:09;;;;;;;0.00;0.00;;;15.40;93.60;;;;;;5055696;28;20159;-75
2022/10/27 06:28:44;;;;;;;0.05;0.05;;;15.50;94.10;;;;;;5055271;28;20075;-75
2022/10/27 06:31:19;;;;;;;0.30;0.03;;;15.60;92.80;;;;;;5056313;28;20033;-75
2022/10/27 06:33:44;;;;;;;0.00;0.00;;;15.70;93.60;;;;;;5056216;28;20064;-75
2022/10/27 06:36:26;;;;;;;0.10;0.10;;;15.70;94.30;;;;;;5055199;28;20021;-75
2022/10/27 06:39:01;;;;;;;0.20;0.15;;;15.70;96.00;;;;;;5056145;28;20061;-75
2022/10/27 06:41:35;;;;;;;0.00;0.00;;;15.70;97.30;;;;;;5056238;28;20352;-75
2022/10/27 06:44:01;;;;;;;1.17;0.98;;;15.70;98.00;;;;;;5059099;28;20036;-75
2022/10/27 06:47:19;;;;;;;0.20;0.05;;;15.60;98.00;;;;;;5060253;28;20108;-75
2022/10/27 06:49:54;;;;;;;1.50;0.32;;;15.70;98.00;;;;;;5060082;28;20143;-75
2022/10/27 06:55:51;;;;;;;0.10;0.10;;;15.90;97.30;;;;;;5060341;28;20050;-75
2022/10/27 06:58:25;;;;;;;0.10;0.10;;;16.10;97.60;;;;;;5060033;28;20447;-75
2022/10/27 07:01:00;;;;;;;0.60;0.40;;;16.20;98.00;;;;;;5059976;28;20447;-75
2022/10/27 07:03:26;;;;;;;0.75;0.73;;;16.30;98.00;;;;;;5059875;28;20367;-75
2022/10/27 07:06:10;;;;;;;0.30;0.30;;;16.40;97.60;;;;;;5060000;28;20079;-75
2022/10/27 07:08:46;;;;;;;0.90;0.50;;;16.60;97.80;;;;;;5059794;28;20295;-75
2022/10/27 07:11:21;;;;;;;0.68;0.55;;;16.70;97.60;;;;;;5059746;28;20120;-75
2022/10/27 07:13:46;;;;;;;0.23;0.13;;;16.70;96.80;;;;;;5058654;28;20025;-75
2022/10/27 07:17:08;;;;;;;0.38;0.28;;;16.80;96.50;;;;;;5042127;28;20751;-75
2022/10/27 07:19:43;;;;;;;0.40;0.28;;;16.90;96.90;;;;;;5059706;28;20416;-75
2022/10/27 07:22:09;;;;;;;0.20;0.17;;;16.90;96.60;;;;;;5056630;28;20020;-76
2022/10/27 07:24:35;;;;;;;0.08;0.00;;;16.90;97.50;;;;;;5041916;28;20033;-75
2022/10/27 07:27:16;;;;;;;1.08;0.52;;;16.90;95.90;;;;;;5058486;28;20021;-75
2022/10/27 07:29:51;;;;;;;0.38;0.20;;;16.90;96.50;;;;;;5058426;28;20112;-75
2022/10/27 07:35:39;;;;;;;0.45;0.43;;;17.00;98.00;;;;;;5059457;28;20071;-75
2022/10/27 07:38:13;;;;;;;0.55;0.28;;;17.00;98.00;;;;;;5059210;28;20025;-75
2022/10/27 07:40:49;;;;;;;0.35;0.30;;;17.10;97.30;;;;;;5059115;28;20039;-75
2022/10/27 07:43:14;;;;;;;0.10;0.10;;;17.10;96.60;;;;;;5059099;28;20368;-75
2022/10/27 07:45:49;;;;;;;0.65;0.40;;;17.20;94.90;;;;;;5059146;28;20100;-75
2022/10/27 07:48:24;;;;;;;0.15;0.10;;;17.20;94.30;;;;;;5058096;28;20029;-77
2022/10/27 07:50:59;;;;;;;0.17;0.10;;;17.30;95.30;;;;;;5059228;28;20298;-75
2022/10/27 07:53:24;;;;;;;0.10;0.10;;;17.30;95.00;;;;;;5059006;28;20075;-75
2022/10/27 07:56:06;;;;;;;0.32;0.22;;;17.30;94.80;;;;;;5056791;28;20036;-75
2022/10/27 07:58:41;;;;;;;1.52;0.93;;;17.40;94.00;;;;;;5057940;28;20120;-75
2022/10/27 08:01:16;;;;;;;0.50;0.30;;;17.50;92.60;;;;;;5058877;28;20033;-75
2022/10/27 08:03:41;;;;;;;0.80;0.50;;;17.60;92.00;;;;;;5041073;28;20295;-75
2022/10/27 08:06:25;;;;;;;0.30;0.30;;;17.70;92.00;;;;;;5058914;28;20025;-75
2022/10/27 08:09:00;;;;;;;0.15;0.15;;;17.70;92.70;;;;;;5057678;28;20475;-73
2022/10/27 08:11:36;;;;;;;0.38;0.25;;;17.80;91.80;;;;;;5057583;28;20036;-76
2022/10/27 08:17:37;;;;;;;0.40;0.25;;;18.00;94.40;;;;;;5058861;28;20027;-76
2022/10/27 08:20:11;;;;;;;0.90;0.70;;;18.00;94.00;;;;;;5058392;28;20116;-72
2022/10/27 08:29:51;;;;;;;0.10;0.10;;;18.30;92.40;;;;;;5059126;28;20036;-72
2022/10/27 08:32:26;;;;;;;0.10;0.10;;;18.50;88.10;;;;;;5057103;28;20043;-72
2022/10/27 08:34:52;;;;;;;0.52;0.52;;;18.60;85.70;;;;;;5058238;28;20013;-73
2022/10/27 08:37:27;;;;;;;0.32;0.20;;;18.90;86.80;;;;;;5058127;28;20036;-73
2022/10/27 08:40:02;;;;;;;1.60;0.50;;;19.30;87.30;;;;;;5058096;28;20029;-75
2022/10/27 08:43:34;;;;;;;0.57;0.50;;;19.70;86.50;;;;;;5058166;28;20049;-73
2022/10/27 08:50:03;;;;;;;1.55;0.55;;;19.80;88.80;;;;;;4977578;28;20054;-72
2022/10/27 08:56:33;;;;;;;0.32;0.30;;;20.20;86.60;;;;;;4977412;28;20105;-73
2022/10/27 08:59:23;;;;;;;2.42;1.02;;;20.70;91.20;;;;;;5048123;28;20337;-72
2022/10/27 09:05:29;;;;;;;4.53;0.90;;;22.30;85.00;;;;;;5055922;28;20104;-73
2022/10/27 09:08:50;;;;;;;0.20;0.15;;;23.80;84.30;;;;;;5055738;28;20051;-73
2022/10/27 09:11:54;;;;;;;0.65;0.30;;;24.50;81.00;;;;;;5038842;28;20036;-73
2022/10/27 09:14:52;;;;;;;0.43;0.20;;;25.20;79.80;;;;;;5055627;28;20033;-73
2022/10/27 09:17:57;;;;;;;0.50;0.32;;;25.80;78.20;;;;;;5040281;28;20033;-75
2022/10/27 09:20:35;;;;;;;0.30;0.20;;;25.90;76.80;;;;;;5055646;28;20103;-75
2022/10/27 09:23:05;;;;;;;0.70;0.70;;;25.90;76.30;;;;;;5057160;28;20263;-75
2022/10/27 09:32:56;;;;;;;0.70;0.50;;;25.40;76.90;;;;;;5057525;28;20052;-75
2022/10/27 09:35:30;;;;;;;0.70;0.38;;;24.90;78.20;;;;;;5056126;28;20414;-74
2022/10/27 09:38:18;;;;;;;0.30;0.20;;;24.60;78.60;;;;;;5056967;28;20052;-74
2022/10/27 09:40:53;;;;;;;3.72;1.08;;;24.80;79.40;;;;;;5056848;28;20294;-74
2022/10/27 09:43:23;;;;;;;0.70;0.30;;;24.90;80.00;;;;;;5056888;28;20025;-75
2022/10/27 09:46:09;;;;;;;0.40;0.30;;;25.20;79.50;;;;;;5055903;28;20053;-74
2022/10/27 09:48:44;;;;;;;0.98;0.77;;;25.20;78.60;;;;;;5055821;28;20021;-74
2022/10/27 09:51:50;;;;;;;0.88;0.30;;;25.30;79.40;;;;;;5055864;28;20018;-74
2022/10/27 09:55:03;;;;;;;1.30;0.70;;;25.80;78.70;;;;;;5055960;28;20036;-74
2022/10/27 09:57:40;;;;;;;0.30;0.20;;;26.40;76.30;;;;;;5056961;28;20021;-75
2022/10/27 10:00:15;;;;;;;0.10;0.10;;;26.70;76.20;;;;;;5055490;28;20424;-74
2022/10/27 10:06:15;;;;;;;1.05;0.60;;;26.50;73.70;;;;;;5057165;28;20028;-74
2022/10/27 10:08:49;;;;;;;0.43;0.28;;;26.60;73.20;;;;;;5056573;28;20104;-75
2022/10/27 10:11:27;;;;;;;0.63;0.30;;;26.90;73.50;;;;;;5055706;28;20032;-75
2022/10/27 10:14:02;;;;;;;0.75;0.15;;;27.30;72.00;;;;;;5056331;28;20017;-74
2022/10/27 10:16:43;;;;;;;0.43;0.20;;;27.20;69.10;;;;;;5055413;28;20160;-74
2022/10/27 10:19:37;;;;;;;0.35;0.20;;;27.20;70.40;;;;;;5055827;28;20017;-73
2022/10/27 10:22:42;;;;;;;0.57;0.35;;;26.70;72.60;;;;;;5056243;28;20025;-74
2022/10/27 10:25:15;;;;;;;0.60;0.45;;;26.60;74.90;;;;;;5056457;28;20023;-74
2022/10/27 10:28:41;;;;;;;1.30;0.52;;;26.50;74.30;;;;;;5054671;28;20052;-74
2022/10/27 10:35:41;;;;;;;1.15;0.70;;;25.00;75.50;;;;;;5056599;28;20107;-74
2022/10/27 10:39:07;;;;;;;0.55;0.30;;;24.50;77.40;;;;;;5055137;28;20306;-74
2022/10/27 10:45:29;;;;;;;0.28;0.20;;;24.00;80.50;;;;;;5056532;28;20082;-74
2022/10/27 10:48:14;;;;;;;0.47;0.47;;;24.00;80.70;;;;;;5056125;28;20025;-74
2022/10/27 10:51:27;;;;;;;0.63;0.30;;;24.30;79.80;;;;;;5056463;28;20103;-74
2022/10/27 10:54:07;;;;;;;0.40;0.30;;;24.50;76.30;;;;;;5054886;28;20028;-74
2022/10/27 10:56:42;;;;;;;4.85;1.23;;;24.70;76.70;;;;;;5056008;28;20037;-74
2022/10/27 10:59:43;;;;;;;0.20;0.20;;;24.80;75.90;;;;;;5054899;28;20029;-74
2022/10/27 11:02:45;;;;;;;0.63;0.43;;;25.30;74.70;;;;;;5055948;28;20036;-74
2022/10/27 11:05:27;;;;;;;0.10;0.10;;;25.50;72.80;;;;;;5055965;28;20321;-74
2022/10/27 11:08:13;;;;;;;0.60;0.35;;;25.50;75.20;;;;;;5055869;28;20059;-73
2022/10/27 11:10:51;;;;;;;0.20;0.10;;;25.80;73.00;;;;;;5054885;28;20424;-74
2022/10/27 11:16:57;;;;;;;0.60;0.40;;;26.30;73.10;;;;;;5056190;28;20032;-74
2022/10/27 11:19:37;;;;;;;0.32;0.22;;;26.60;74.30;;;;;;5055901;28;20027;-74
2022/10/27 11:25:31;;;;;;;0.30;0.20;;;26.70;71.30;;;;;;5056146;28;20479;-75
2022/10/27 11:42:56;;;;;;;0.17;0.10;;;25.70;75.10;;;;;;4978599;28;20041;-74
2022/10/27 11:46:33;;;;;;;0.52;0.30;;;25.70;75.30;;;;;;4978420;28;20125;-74
2022/10/27 11:49:16;;;;;;;0.32;0.20;;;25.60;73.00;;;;;;4959191;29;20047;-74
2022/10/27 11:52:18;;;;;;;0.30;0.20;;;25.60;74.70;;;;;;4959039;29;20424;-74
2022/10/27 11:54:46;;;;;;;0.40;0.30;;;25.50;72.60;;;;;;4959085;29;20035;-74
2022/10/27 11:57:49;;;;;;;0.63;0.20;;;25.30;73.60;;;;;;4958892;29;20138;-74
2022/10/27 12:00:27;;;;;;;0.30;0.20;;;25.30;76.00;;;;;;4958225;29;20122;-73
2022/10/27 12:06:59;;;;;;;0.20;0.10;;;25.30;77.00;;;;;;4976093;28;20057;-74
2022/10/27 12:10:14;;;;;;;0.10;0.10;;;25.00;74.40;;;;;;4958797;29;20094;-73
2022/10/27 12:16:53;;;;;;;0.50;0.35;;;24.40;76.90;;;;;;4996253;28;20041;-74
2022/10/27 12:19:44;;;;;;;0.00;0.00;;;24.00;78.80;;;;;;5036710;28;20516;-74
2022/10/27 12:22:26;;;;;;;0.30;0.28;;;23.90;76.90;;;;;;5036692;28;20036;-73
2022/10/27 12:24:59;;;;;;;0.08;0.08;;;23.80;78.70;;;;;;5036694;28;20037;-74
2022/10/27 12:31:21;;;;;;;0.93;0.50;;;23.50;77.00;;;;;;5058666;28;20340;-74
2022/10/27 12:34:02;;;;;;;1.27;0.65;;;23.30;78.90;;;;;;5040861;28;20317;-74
2022/10/27 12:39:56;;;;;;;1.67;0.30;;;23.00;78.90;;;;;;5058053;28;20035;-74
2022/10/27 12:46:07;;;;;;;0.52;0.20;;;22.70;81.20;;;;;;5058401;28;20032;-74
2022/10/27 12:49:24;;;;;;;0.20;0.10;;;22.50;81.00;;;;;;5056949;28;20341;-74
2022/10/27 12:52:28;;;;;;;1.70;0.95;;;22.40;78.90;;;;;;5057004;28;20025;-74
2022/10/27 12:55:15;;;;;;;0.47;0.38;;;22.40;81.80;;;;;;5057834;28;20035;-73
2022/10/27 12:58:38;;;;;;;0.88;0.63;;;22.40;78.60;;;;;;5057865;28;20325;-74
2022/10/27 13:01:58;;;;;;;0.17;0.10;;;22.40;80.20;;;;;;5050232;28;20029;-74
2022/10/27 13:04:42;;;;;;;1.30;0.35;;;22.40;79.70;;;;;;5055971;28;20060;-73
2022/10/27 13:07:36;;;;;;;1.05;0.70;;;22.40;79.30;;;;;;5056555;28;20112;-74
2022/10/27 13:10:35;;;;;;;0.22;0.20;;;22.40;79.30;;;;;;5056492;28;20072;-73
2022/10/27 13:13:15;;;;;;;0.28;0.28;;;22.30;78.00;;;;;;5057387;28;20021;-74
2022/10/27 13:16:32;;;;;;;0.57;0.52;;;22.20;77.70;;;;;;5057527;28;20044;-74
2022/10/27 13:19:44;;;;;;;0.50;0.30;;;22.20;81.00;;;;;;5056592;28;20325;-73
2022/10/27 13:26:04;;;;;;;0.30;0.22;;;22.10;78.80;;;;;;5057570;28;20059;-74
2022/10/27 13:29:30;;;;;;;0.45;0.30;;;21.90;82.80;;;;;;5054707;28;20071;-74
2022/10/27 13:35:36;;;;;;;0.10;0.08;;;21.80;82.40;;;;;;5057517;28;20110;-74
2022/10/27 13:38:29;;;;;;;0.25;0.25;;;21.70;79.30;;;;;;5055880;28;20033;-73
2022/10/27 13:41:07;;;;;;;0.32;0.10;;;21.60;79.20;;;;;;5057199;28;20029;-74
2022/10/27 13:47:15;;;;;;;0.68;0.40;;;21.40;80.50;;;;;;5057200;28;20020;-74
2022/10/27 13:49:52;;;;;;;0.30;0.20;;;21.40;81.70;;;;;;5055788;28;20028;-74
2022/10/27 13:52:27;;;;;;;0.52;0.30;;;21.30;80.20;;;;;;5054756;28;20056;-74
2022/10/27 13:54:57;;;;;;;0.30;0.30;;;21.30;81.10;;;;;;5055641;28;20033;-74
2022/10/27 13:58:20;;;;;;;0.43;0.30;;;21.20;83.90;;;;;;5057063;28;20279;-74
2022/10/27 14:01:33;;;;;;;0.00;0.00;;;21.20;82.10;;;;;;5054542;28;20049;-74
2022/10/27 14:07:35;;;;;;;0.35;0.17;;;21.00;80.90;;;;;;5054902;28;20071;-74
2022/10/27 14:10:21;;;;;;;8.68;0.60;;;21.00;82.80;;;;;;5037949;28;20029;-74
2022/10/27 14:16:47;;;;;;;1.45;0.50;;;21.00;83.90;;;;;;5055124;28;20440;-73
2022/10/27 14:19:38;;;;;;;0.73;0.20;;;20.90;83.00;;;;;;5037884;28;20035;-74
2022/10/27 14:25:29;;;;;;;0.10;0.08;;;20.80;83.90;;;;;;5054904;28;20059;-73
2022/10/27 14:28:26;;;;;;;3.70;1.10;;;20.80;84.30;;;;;;5052870;28;20128;-74
2022/10/27 14:31:19;;;;;;;2.45;1.08;;;20.70;84.80;;;;;;5054512;28;20136;-74
2022/10/27 14:37:56;;;;;;;0.20;0.20;;;20.50;84.30;;;;;;4992420;28;20077;-73
2022/10/27 14:40:37;;;;;;;0.20;0.10;;;20.50;85.60;;;;;;4995034;28;20426;-74
2022/10/27 14:43:08;;;;;;;0.20;0.10;;;20.40;85.40;;;;;;4978786;28;20411;-74
2022/10/27 14:45:44;;;;;;;0.03;0.03;;;20.40;86.40;;;;;;4995113;28;20026;-74
2022/10/27 14:48:29;;;;;;;0.08;0.00;;;20.30;85.40;;;;;;4995033;28;20030;-74
2022/10/27 14:51:18;;;;;;;0.75;0.60;;;20.20;85.60;;;;;;4994970;28;20030;-73
2022/10/27 14:57:42;;;;;;;1.20;0.45;;;20.10;86.30;;;;;;4994954;28;20149;-74
2022/10/27 15:00:31;;;;;;;0.32;0.30;;;20.00;85.70;;;;;;4995033;28;20105;-73
2022/10/27 15:06:30;;;;;;;0.30;0.30;;;20.00;86.60;;;;;;4998999;28;20538;-74
2022/10/27 15:09:04;;;;;;;0.10;0.10;;;19.90;87.30;;;;;;4998705;28;20037;-74
2022/10/27 15:11:33;;;;;;;0.82;0.22;;;19.80;90.80;;;;;;4984882;28;20033;-73
2022/10/27 15:17:33;;;;;;;0.88;0.80;;;19.50;92.90;;;;;;5059921;28;20071;-74
2022/10/27 15:20:15;;;;;;;0.20;0.20;;;19.30;93.30;;;;;;5058745;28;20138;-73
2022/10/27 15:22:52;;;;;;;0.50;0.32;;;19.10;93.90;;;;;;5058535;28;20049;-74
2022/10/27 15:25:30;;;;;;;0.68;0.40;;;19.00;93.20;;;;;;5058514;28;20051;-74
2022/10/27 15:28:55;;;;;;;0.57;0.45;;;18.90;93.60;;;;;;5056675;28;20126;-74
2022/10/27 15:34:56;;;;;;;0.38;0.30;;;18.50;95.70;;;;;;5059776;28;20032;-73
2022/10/27 15:38:11;;;;;;;0.00;0.00;;;18.20;96.10;;;;;;5025189;28;20040;-73
2022/10/27 15:40:47;;;;;;;0.77;0.20;;;18.00;96.50;;;;;;5058089;28;20036;-73
2022/10/27 15:46:45;;;;;;;0.47;0.20;;;17.60;97.00;;;;;;5059250;28;20243;-73
2022/10/27 15:49:28;;;;;;;0.10;0.10;;;17.50;97.70;;;;;;5059049;28;20028;-73
2022/10/27 15:52:27;;;;;;;0.28;0.20;;;17.40;97.80;;;;;;5058993;28;20383;-73
2022/10/27 15:54:53;;;;;;;0.60;0.40;;;17.30;98.00;;;;;;5059003;28;20486;-73
2022/10/27 15:57:40;;;;;;;0.68;0.43;;;17.10;97.80;;;;;;5058916;28;20112;-75
2022/10/27 16:00:30;;;;;;;0.10;0.10;;;16.90;97.60;;;;;;5058917;28;20120;-76
2022/10/27 16:03:01;;;;;;;0.17;0.10;;;16.90;97.90;;;;;;5057738;28;20516;-75
2022/10/27 16:05:43;;;;;;;0.05;0.05;;;16.70;98.00;;;;;;5058945;28;20025;-76
2022/10/27 16:08:18;;;;;;;0.15;0.10;;;16.70;98.00;;;;;;5057723;28;20029;-76
2022/10/27 16:10:53;;;;;;;0.63;0.60;;;16.60;98.00;;;;;;5058972;28;20028;-75
2022/10/27 16:13:20;;;;;;;0.60;0.43;;;16.50;98.00;;;;;;5057558;28;20025;-76
2022/10/27 16:16:01;;;;;;;0.93;0.73;;;16.50;98.00;;;;;;5056537;28;20032;-76
2022/10/27 16:18:38;;;;;;;0.28;0.22;;;16.40;98.00;;;;;;5058596;28;20299;-75
2022/10/27 16:21:17;;;;;;;0.32;0.20;;;16.30;98.00;;;;;;5058576;28;20033;-76
2022/10/27 16:27:21;;;;;;;1.25;0.35;;;16.30;98.00;;;;;;5058677;28;20032;-73
2022/10/27 16:29:58;;;;;;;0.22;0.22;;;16.20;98.00;;;;;;5058290;28;20357;-76
2022/10/27 16:35:46;;;;;;;0.30;0.13;;;16.00;98.00;;;;;;5058483;28;20028;-72
2022/10/27 16:38:24;;;;;;;0.20;0.10;;;16.00;98.00;;;;;;5058155;28;20037;-73
2022/10/27 16:40:58;;;;;;;0.55;0.22;;;15.90;98.00;;;;;;5058076;28;20048;-73
2022/10/27 16:43:29;;;;;;;0.30;0.30;;;15.80;98.00;;;;;;5058022;28;20021;-75
2022/10/27 16:46:11;;;;;;;0.35;0.30;;;15.80;98.00;;;;;;5058033;28;20079;-74
2022/10/27 16:48:46;;;;;;;0.57;0.52;;;15.80;98.00;;;;;;5057039;28;20456;-76
2022/10/27 16:51:24;;;;;;;0.38;0.20;;;15.80;98.00;;;;;;5057852;28;20029;-74
2022/10/27 16:53:50;;;;;;;0.43;0.20;;;15.80;98.00;;;;;;5057893;28;20033;-73
2022/10/27 16:56:27;;;;;;;0.17;0.15;;;15.90;98.00;;;;;;5057598;28;20024;-74
2022/10/27 16:59:03;;;;;;;0.20;0.10;;;15.90;98.00;;;;;;5057796;28;20040;-73
2022/10/27 17:01:38;;;;;;;0.15;0.13;;;16.10;98.00;;;;;;5057749;28;20313;-76